Time;durP1;ratioP1;P1;durP2;ratioP2;P2;SDS_P1;SDS_P2;PMS_P1;PMS_P2;Temp;Humidity;BMP_temperature;BMP_pressure;BME280_temperature;BME280_humidity;BME280_pressure;Samples;Min_cycle;Max_cycle;Signal;HPM_P1;HPM_P2
2022/03/20 00:01:56;;;;;;;4.80;1.73;;;7.60;99.90;;;;;;5077704;28;20055;-59
2022/03/20 00:04:21;;;;;;;4.15;1.70;;;7.50;99.90;;;;;;5077658;28;20308;-59
2022/03/20 00:06:47;;;;;;;2.17;1.23;;;7.30;99.90;;;;;;5076787;28;20327;-59
2022/03/20 00:09:13;;;;;;;3.15;1.40;;;7.40;99.90;;;;;;5077491;28;20025;-59
2022/03/20 00:11:39;;;;;;;5.57;1.67;;;7.20;99.90;;;;;;5077876;28;20104;-59
2022/03/20 00:14:05;;;;;;;2.38;1.60;;;7.20;99.90;;;;;;5076852;28;20028;-59
2022/03/20 00:16:31;;;;;;;5.13;1.60;;;7.20;99.90;;;;;;5077433;28;20029;-59
2022/03/20 00:18:58;;;;;;;3.90;1.52;;;7.10;99.90;;;;;;5077372;28;20048;-59
2022/03/20 00:21:24;;;;;;;4.60;1.85;;;7.10;99.90;;;;;;5077423;28;20039;-59
2022/03/20 00:23:49;;;;;;;3.20;1.58;;;7.10;99.90;;;;;;5076702;28;20070;-59
2022/03/20 00:26:18;;;;;;;2.78;1.50;;;7.20;99.90;;;;;;5077314;28;20043;-60
2022/03/20 00:28:44;;;;;;;3.47;1.60;;;7.10;99.90;;;;;;5077791;28;20056;-60
2022/03/20 00:31:10;;;;;;;3.50;1.73;;;7.10;99.90;;;;;;5059871;28;20111;-59
2022/03/20 00:33:36;;;;;;;4.20;1.80;;;7.10;99.90;;;;;;5077152;28;20464;-58
2022/03/20 00:36:02;;;;;;;5.55;1.83;;;7.10;99.90;;;;;;5076399;28;20024;-58
2022/03/20 00:38:28;;;;;;;4.10;1.92;;;7.00;99.90;;;;;;5076195;28;20063;-59
2022/03/20 00:40:54;;;;;;;5.65;2.30;;;6.90;99.90;;;;;;5077293;28;20127;-59
2022/03/20 00:43:20;;;;;;;7.60;2.55;;;7.00;99.90;;;;;;5077277;28;20296;-59
2022/03/20 00:45:46;;;;;;;5.20;2.00;;;7.00;99.90;;;;;;5077011;28;20075;-59
2022/03/20 00:48:12;;;;;;;4.55;2.15;;;6.90;99.90;;;;;;5076812;28;20415;-59
2022/03/20 00:50:38;;;;;;;4.55;2.30;;;6.90;99.90;;;;;;5076677;28;20061;-59
2022/03/20 00:53:04;;;;;;;3.75;2.13;;;6.80;99.90;;;;;;5076889;28;20028;-59
2022/03/20 00:55:30;;;;;;;3.67;2.40;;;6.80;99.90;;;;;;5076963;28;20036;-59
2022/03/20 00:57:56;;;;;;;6.75;2.30;;;6.70;99.90;;;;;;5076831;28;20031;-59
2022/03/20 01:00:22;;;;;;;4.97;2.25;;;6.60;99.90;;;;;;5076206;28;20324;-59
2022/03/20 01:02:47;;;;;;;4.43;2.05;;;6.70;99.90;;;;;;5076891;28;20052;-59
2022/03/20 01:05:14;;;;;;;4.28;2.15;;;6.70;99.90;;;;;;5076501;28;20040;-60
2022/03/20 01:07:40;;;;;;;4.72;2.10;;;6.70;99.90;;;;;;5076744;28;20281;-59
2022/03/20 01:10:08;;;;;;;4.20;1.98;;;6.60;99.90;;;;;;5076050;28;20372;-59
2022/03/20 01:12:35;;;;;;;3.78;1.88;;;6.50;99.90;;;;;;5076667;28;20094;-59
2022/03/20 01:15:11;;;;;;;5.28;2.38;;;6.50;99.90;;;;;;5059876;28;20028;-59
2022/03/20 01:17:38;;;;;;;6.78;2.30;;;6.40;99.90;;;;;;5076002;28;20040;-59
2022/03/20 01:20:08;;;;;;;4.43;2.05;;;6.30;99.90;;;;;;5042969;28;20040;-59
2022/03/20 01:22:34;;;;;;;4.45;2.17;;;6.30;99.90;;;;;;5076647;28;20028;-59
2022/03/20 01:25:00;;;;;;;6.93;1.90;;;6.30;99.90;;;;;;5059109;28;20039;-59
2022/03/20 01:27:26;;;;;;;4.53;2.25;;;6.30;99.90;;;;;;5075871;28;20044;-59
2022/03/20 01:29:52;;;;;;;4.22;2.22;;;6.40;99.90;;;;;;5058958;28;20024;-58
2022/03/20 01:32:18;;;;;;;4.80;2.22;;;6.30;99.90;;;;;;5076603;28;20037;-59
2022/03/20 01:34:44;;;;;;;7.97;2.33;;;6.20;99.90;;;;;;5076551;28;20396;-59
2022/03/20 01:37:10;;;;;;;4.43;2.10;;;6.30;99.90;;;;;;5077097;28;20032;-59
2022/03/20 01:39:36;;;;;;;5.22;2.20;;;6.20;99.90;;;;;;5080562;28;20053;-59
2022/03/20 01:42:01;;;;;;;4.55;2.22;;;6.20;99.90;;;;;;5079609;28;20043;-59
2022/03/20 01:44:32;;;;;;;4.68;2.25;;;6.10;99.90;;;;;;5080449;28;20031;-59
2022/03/20 01:46:58;;;;;;;7.20;2.40;;;6.00;99.90;;;;;;5080310;28;20051;-59
2022/03/20 01:49:25;;;;;;;3.95;2.25;;;6.10;99.90;;;;;;5080250;28;20043;-59
2022/03/20 01:54:35;;;;;;;4.97;2.53;;;6.00;99.90;;;;;;5080872;28;20178;-59
2022/03/20 01:57:01;;;;;;;6.13;2.80;;;6.10;99.90;;;;;;5080147;28;20321;-59
2022/03/20 01:59:27;;;;;;;6.50;2.40;;;6.10;99.90;;;;;;5080121;28;20039;-59
2022/03/20 02:01:52;;;;;;;4.97;2.75;;;6.20;99.90;;;;;;5079528;28;20028;-59
2022/03/20 02:04:18;;;;;;;5.75;2.78;;;6.10;99.90;;;;;;5079837;28;20033;-60
2022/03/20 02:06:44;;;;;;;6.03;2.80;;;6.00;99.90;;;;;;5079836;28;20132;-59
2022/03/20 02:09:11;;;;;;;7.70;3.08;;;6.00;99.90;;;;;;5079163;28;20028;-59
2022/03/20 02:11:37;;;;;;;5.28;2.92;;;6.10;99.90;;;;;;5062618;28;20032;-59
2022/03/20 02:14:04;;;;;;;5.65;2.75;;;6.00;99.90;;;;;;5079757;28;20025;-59
2022/03/20 02:16:31;;;;;;;5.55;2.67;;;5.90;99.90;;;;;;5079758;28;20068;-59
2022/03/20 02:18:58;;;;;;;4.55;2.75;;;5.90;99.90;;;;;;5079757;28;20053;-59
2022/03/20 02:21:46;;;;;;;6.63;3.28;;;5.90;99.90;;;;;;5078960;28;20047;-60
2022/03/20 02:24:44;;;;;;;5.13;2.95;;;5.90;99.90;;;;;;5062394;28;20217;-60
2022/03/20 02:27:18;;;;;;;6.72;3.42;;;6.00;99.90;;;;;;5079496;28;20028;-59
2022/03/20 02:29:52;;;;;;;6.63;3.25;;;6.00;99.90;;;;;;5079553;28;20094;-60
2022/03/20 02:32:23;;;;;;;5.63;3.67;;;5.90;99.90;;;;;;5079531;28;20400;-60
2022/03/20 02:34:50;;;;;;;6.32;2.97;;;5.90;99.90;;;;;;5079033;28;20296;-60
2022/03/20 02:37:18;;;;;;;6.43;3.70;;;6.00;99.90;;;;;;5045258;28;20418;-60
2022/03/20 02:39:45;;;;;;;7.45;3.97;;;5.90;99.90;;;;;;5079482;28;20057;-60
2022/03/20 02:42:13;;;;;;;6.13;3.90;;;5.90;99.90;;;;;;5078603;28;20067;-60
2022/03/20 02:44:49;;;;;;;7.28;4.05;;;5.90;99.90;;;;;;5062066;28;20063;-60
2022/03/20 02:47:20;;;;;;;6.20;4.00;;;5.90;99.90;;;;;;5079200;28;20071;-60
2022/03/20 02:50:03;;;;;;;7.50;4.40;;;5.90;99.90;;;;;;5077987;28;20025;-60
2022/03/20 02:52:31;;;;;;;6.25;4.00;;;5.90;99.90;;;;;;5079217;28;20434;-60
2022/03/20 02:55:02;;;;;;;9.15;4.47;;;5.90;99.90;;;;;;5079069;28;20098;-60
2022/03/20 02:57:29;;;;;;;7.10;4.78;;;5.90;99.90;;;;;;5079020;28;20340;-60
2022/03/20 03:00:00;;;;;;;8.63;4.82;;;5.90;99.90;;;;;;5079599;28;20107;-61
2022/03/20 03:02:30;;;;;;;9.48;5.63;;;5.90;99.90;;;;;;5078139;28;20067;-60
2022/03/20 03:04:59;;;;;;;8.00;5.18;;;5.80;99.90;;;;;;5061462;28;20388;-59
2022/03/20 03:07:31;;;;;;;11.95;5.82;;;5.80;99.90;;;;;;5078744;28;20024;-60
2022/03/20 03:12:42;;;;;;;9.05;6.18;;;5.80;99.90;;;;;;5078616;28;20044;-59
2022/03/20 03:15:20;;;;;;;10.90;6.60;;;5.80;99.90;;;;;;5078568;28;20033;-59
2022/03/20 03:17:49;;;;;;;10.30;6.75;;;5.80;99.90;;;;;;5078682;28;20351;-59
2022/03/20 03:20:19;;;;;;;14.82;7.32;;;5.80;99.90;;;;;;5078516;28;20036;-59
2022/03/20 03:22:46;;;;;;;11.35;7.25;;;5.80;99.90;;;;;;5078574;28;20033;-60
2022/03/20 03:25:12;;;;;;;12.27;7.20;;;5.80;99.90;;;;;;5079131;28;20067;-59
2022/03/20 03:27:38;;;;;;;12.23;8.00;;;5.70;99.90;;;;;;5060960;28;20068;-59
2022/03/20 03:30:05;;;;;;;11.32;7.22;;;5.80;99.90;;;;;;5060979;28;20032;-59
2022/03/20 03:32:31;;;;;;;11.00;7.68;;;5.80;99.90;;;;;;5077728;28;20035;-60
2022/03/20 03:37:41;;;;;;;12.68;8.25;;;5.70;99.90;;;;;;5077420;28;20036;-60
2022/03/20 03:40:09;;;;;;;12.88;8.65;;;5.70;99.90;;;;;;5077379;28;20114;-59
2022/03/20 03:42:36;;;;;;;13.60;8.63;;;5.60;99.90;;;;;;5060717;28;20071;-60
2022/03/20 03:45:03;;;;;;;14.80;8.98;;;5.70;99.90;;;;;;5060860;28;20036;-60
2022/03/20 03:47:29;;;;;;;16.30;9.82;;;5.60;99.90;;;;;;5077912;28;20031;-60
2022/03/20 03:49:55;;;;;;;17.52;10.30;;;5.50;99.90;;;;;;5078002;28;20028;-60
2022/03/20 03:52:21;;;;;;;16.52;10.32;;;5.40;99.90;;;;;;5077250;28;20143;-60
2022/03/20 03:54:47;;;;;;;15.93;10.82;;;5.40;99.90;;;;;;5077793;28;20039;-60
2022/03/20 03:57:13;;;;;;;17.90;10.27;;;5.50;99.90;;;;;;5077831;28;20053;-60
2022/03/20 03:59:41;;;;;;;17.77;11.10;;;5.50;99.90;;;;;;5077743;28;20333;-60
2022/03/20 04:02:06;;;;;;;16.15;10.52;;;5.60;99.90;;;;;;5077049;28;20052;-60
2022/03/20 04:04:32;;;;;;;19.65;11.18;;;5.50;99.90;;;;;;5077071;28;20040;-60
2022/03/20 04:06:58;;;;;;;15.50;10.95;;;5.40;99.90;;;;;;5077759;28;20044;-60
2022/03/20 04:09:24;;;;;;;17.85;11.50;;;5.40;99.90;;;;;;5077517;28;20032;-60
2022/03/20 04:11:51;;;;;;;18.17;12.07;;;5.40;99.90;;;;;;5060287;28;20308;-60
2022/03/20 04:14:20;;;;;;;18.38;11.40;;;5.40;99.90;;;;;;5077542;28;20028;-60
2022/03/20 04:16:46;;;;;;;21.48;12.13;;;5.40;99.90;;;;;;5077495;28;20056;-60
2022/03/20 04:19:11;;;;;;;23.95;12.43;;;5.40;99.90;;;;;;5060233;28;20032;-60
2022/03/20 04:21:37;;;;;;;15.27;11.30;;;5.40;99.90;;;;;;5076624;28;20119;-60
2022/03/20 04:24:04;;;;;;;19.80;12.27;;;5.40;99.90;;;;;;5076638;28;20064;-60
2022/03/20 04:26:32;;;;;;;17.88;11.68;;;5.50;99.90;;;;;;5076543;28;20032;-60
2022/03/20 04:28:58;;;;;;;19.98;13.00;;;5.60;99.90;;;;;;5077279;28;20021;-59
2022/03/20 04:31:24;;;;;;;20.75;12.45;;;5.60;99.90;;;;;;5059801;28;20038;-60
2022/03/20 04:33:54;;;;;;;18.92;12.68;;;5.50;99.90;;;;;;5077249;28;20083;-60
2022/03/20 04:36:21;;;;;;;16.08;11.88;;;5.40;99.90;;;;;;5077256;28;20060;-60
2022/03/20 04:38:50;;;;;;;18.38;12.68;;;5.40;99.90;;;;;;5076991;28;20473;-60
2022/03/20 04:41:17;;;;;;;21.58;12.75;;;5.40;99.90;;;;;;5076335;28;20020;-60
2022/03/20 04:43:48;;;;;;;21.05;12.65;;;5.50;99.90;;;;;;5076405;28;20043;-60
2022/03/20 04:46:14;;;;;;;19.35;13.30;;;5.60;99.90;;;;;;5077348;28;20029;-60
2022/03/20 04:59:38;;;;;;;26.33;14.07;;;5.50;99.90;;;;;;5076946;28;20036;-60
2022/03/20 05:02:04;;;;;;;20.10;13.38;;;5.40;99.90;;;;;;5076868;28;20337;-60
2022/03/20 05:04:30;;;;;;;21.45;13.65;;;5.60;99.90;;;;;;5076851;28;20047;-60
2022/03/20 05:06:56;;;;;;;21.35;13.85;;;5.70;99.90;;;;;;5076786;28;20036;-60
2022/03/20 05:14:51;;;;;;;22.35;13.77;;;5.60;99.90;;;;;;5076047;28;20098;-60
2022/03/20 05:17:16;;;;;;;22.33;14.23;;;5.60;99.90;;;;;;5059369;28;20040;-60
2022/03/20 05:19:45;;;;;;;21.65;14.13;;;5.60;99.90;;;;;;5076992;28;20380;-60
2022/03/20 05:22:11;;;;;;;24.98;15.05;;;5.50;99.90;;;;;;5076209;28;20032;-60
2022/03/20 05:24:38;;;;;;;21.52;14.52;;;5.60;99.90;;;;;;5076641;28;20396;-60
2022/03/20 05:27:05;;;;;;;21.65;14.63;;;5.60;99.90;;;;;;5075729;28;20352;-60
2022/03/20 05:29:32;;;;;;;21.52;14.15;;;5.70;99.90;;;;;;5076096;28;20457;-60
2022/03/20 05:32:00;;;;;;;21.40;14.63;;;5.60;99.90;;;;;;5075970;28;20037;-60
2022/03/20 05:34:26;;;;;;;21.92;14.40;;;5.50;99.90;;;;;;5076749;28;20043;-60
2022/03/20 05:36:52;;;;;;;22.73;14.50;;;5.40;99.90;;;;;;5076583;28;20108;-60
2022/03/20 05:39:18;;;;;;;26.08;15.07;;;5.50;99.90;;;;;;5076392;28;20131;-61
2022/03/20 05:41:47;;;;;;;22.83;15.15;;;5.40;99.90;;;;;;5076550;28;20052;-60
2022/03/20 05:44:24;;;;;;;23.33;15.13;;;5.50;99.90;;;;;;5076509;28;20082;-60
2022/03/20 05:46:52;;;;;;;22.13;14.13;;;5.50;99.90;;;;;;5076450;28;20121;-60
2022/03/20 05:49:20;;;;;;;21.60;14.50;;;5.30;99.90;;;;;;5076405;28;20036;-60
2022/03/20 05:51:47;;;;;;;25.60;15.57;;;5.30;99.90;;;;;;5075714;28;20032;-60
2022/03/20 05:54:15;;;;;;;23.25;14.43;;;5.30;99.90;;;;;;5075670;28;20320;-61
2022/03/20 05:59:27;;;;;;;24.40;16.02;;;5.30;99.90;;;;;;5075819;28;20072;-60
2022/03/20 06:01:53;;;;;;;28.42;15.40;;;5.40;99.90;;;;;;5075531;28;20032;-60
2022/03/20 06:04:21;;;;;;;24.63;14.93;;;5.50;99.90;;;;;;5075473;28;20090;-60
2022/03/20 06:06:48;;;;;;;22.30;15.40;;;5.60;99.90;;;;;;5076449;28;20024;-60
2022/03/20 06:09:14;;;;;;;22.38;16.05;;;5.80;99.90;;;;;;5075516;28;20094;-60
2022/03/20 06:11:40;;;;;;;22.33;15.18;;;5.80;99.90;;;;;;5075315;28;20369;-60
2022/03/20 06:14:07;;;;;;;22.30;15.32;;;5.90;99.90;;;;;;5076176;28;20107;-60
2022/03/20 06:16:34;;;;;;;22.55;15.63;;;5.80;99.90;;;;;;5076194;28;20075;-60
2022/03/20 06:19:01;;;;;;;25.25;16.13;;;5.80;99.90;;;;;;5075385;28;20020;-60
2022/03/20 06:21:27;;;;;;;24.85;15.77;;;5.90;99.90;;;;;;5076504;28;20025;-60
2022/03/20 06:23:54;;;;;;;23.98;15.88;;;5.90;99.90;;;;;;5077747;28;20025;-61
2022/03/20 06:26:20;;;;;;;24.52;16.35;;;6.00;99.90;;;;;;5079844;28;20032;-59
2022/03/20 06:28:48;;;;;;;23.38;15.57;;;6.10;99.90;;;;;;5079581;28;20032;-59
2022/03/20 06:31:16;;;;;;;26.40;16.75;;;6.00;99.90;;;;;;5079580;28;20056;-60
2022/03/20 06:33:45;;;;;;;23.83;16.23;;;5.90;99.90;;;;;;5079177;28;20093;-59
2022/03/20 06:36:11;;;;;;;26.23;16.73;;;5.90;99.90;;;;;;5078525;28;20177;-60
2022/03/20 06:38:38;;;;;;;25.42;16.60;;;5.70;99.90;;;;;;5078512;28;20048;-59
2022/03/20 06:41:05;;;;;;;27.42;16.95;;;5.70;99.90;;;;;;5079171;28;20304;-60
2022/03/20 06:43:31;;;;;;;27.50;16.90;;;5.70;99.90;;;;;;5079199;28;20094;-61
2022/03/20 06:45:57;;;;;;;26.05;16.95;;;5.60;99.90;;;;;;5078649;28;20094;-60
2022/03/20 06:48:24;;;;;;;23.45;16.63;;;5.60;99.90;;;;;;5079405;28;20032;-60
2022/03/20 06:50:50;;;;;;;27.27;16.63;;;5.50;99.90;;;;;;5079254;28;20465;-60
2022/03/20 06:53:18;;;;;;;25.08;16.33;;;5.50;99.90;;;;;;5078465;28;20310;-60
2022/03/20 06:55:45;;;;;;;26.10;17.08;;;5.40;99.90;;;;;;5079228;28;20296;-60
2022/03/20 06:58:13;;;;;;;26.92;16.92;;;5.50;99.90;;;;;;5079017;28;20028;-60
2022/03/20 07:00:40;;;;;;;26.33;17.08;;;5.60;99.90;;;;;;5078277;28;20040;-60
2022/03/20 07:03:08;;;;;;;27.20;17.52;;;5.70;99.90;;;;;;5078169;28;20036;-60
2022/03/20 07:05:35;;;;;;;26.65;16.58;;;5.80;99.90;;;;;;5078860;28;20028;-58
2022/03/20 07:08:03;;;;;;;27.08;16.70;;;5.90;99.90;;;;;;5078819;28;20039;-58
2022/03/20 07:10:30;;;;;;;25.75;16.83;;;5.90;99.90;;;;;;5078214;28;20033;-59
2022/03/20 07:15:42;;;;;;;22.08;16.25;;;5.80;99.90;;;;;;5079400;28;20128;-59
2022/03/20 07:18:13;;;;;;;26.30;16.88;;;5.90;99.90;;;;;;5078695;28;20025;-58
2022/03/20 07:20:41;;;;;;;24.13;17.38;;;5.80;99.90;;;;;;5078646;28;20036;-59
2022/03/20 07:23:09;;;;;;;27.10;17.13;;;5.80;99.90;;;;;;5078554;28;20081;-59
2022/03/20 07:31:06;;;;;;;25.75;16.63;;;5.80;99.90;;;;;;5078490;28;20032;-60
2022/03/20 07:33:33;;;;;;;24.33;16.48;;;5.80;99.90;;;;;;5077569;28;20028;-59
2022/03/20 07:35:59;;;;;;;23.98;16.48;;;5.80;99.90;;;;;;5077018;28;20024;-60
2022/03/20 07:38:26;;;;;;;27.65;16.98;;;6.00;99.90;;;;;;5060763;28;20049;-60
2022/03/20 07:40:52;;;;;;;25.13;16.58;;;5.90;99.90;;;;;;5078778;28;20043;-60
2022/03/20 07:43:18;;;;;;;30.58;19.15;;;5.90;99.90;;;;;;5078043;28;20052;-60
2022/03/20 07:45:45;;;;;;;29.17;19.73;;;5.30;99.90;;;;;;5077947;28;20275;-60
2022/03/20 07:48:11;;;;;;;32.78;20.08;;;5.00;99.90;;;;;;5077147;28;20043;-59
2022/03/20 07:50:40;;;;;;;29.77;20.52;;;4.60;99.90;;;;;;5077391;28;20048;-59
2022/03/20 07:53:06;;;;;;;32.15;21.40;;;4.60;99.90;;;;;;5077278;28;20462;-59
2022/03/20 07:55:34;;;;;;;33.63;21.77;;;4.60;99.90;;;;;;5077986;28;20036;-59
2022/03/20 07:58:01;;;;;;;32.25;21.30;;;4.60;99.90;;;;;;5077247;28;20032;-60
2022/03/20 08:00:27;;;;;;;36.78;21.85;;;4.50;99.90;;;;;;5060700;28;20351;-60
2022/03/20 08:02:53;;;;;;;34.00;22.40;;;4.70;99.90;;;;;;5078347;28;20028;-60
2022/03/20 08:05:20;;;;;;;34.17;23.15;;;4.90;99.90;;;;;;5077045;28;20203;-60
2022/03/20 08:07:46;;;;;;;37.85;23.17;;;5.00;99.90;;;;;;5077571;28;20388;-60
2022/03/20 08:10:13;;;;;;;33.75;22.38;;;5.20;99.90;;;;;;5077533;28;20028;-60
2022/03/20 08:12:40;;;;;;;38.40;23.42;;;5.20;99.90;;;;;;5077298;28;20033;-60
2022/03/20 08:15:06;;;;;;;34.53;22.20;;;5.30;99.90;;;;;;5078119;28;20021;-59
2022/03/20 08:17:42;;;;;;;33.15;22.10;;;5.50;99.90;;;;;;5077420;28;20337;-61
2022/03/20 08:20:09;;;;;;;36.03;23.40;;;5.70;99.90;;;;;;5077404;28;20029;-61
2022/03/20 08:22:35;;;;;;;32.75;22.05;;;6.00;99.90;;;;;;5076564;28;20036;-61
2022/03/20 08:25:03;;;;;;;35.50;22.60;;;6.00;99.90;;;;;;5076503;28;20056;-59
2022/03/20 08:27:28;;;;;;;31.95;22.48;;;6.00;99.90;;;;;;5059899;28;20060;-62
2022/03/20 08:29:56;;;;;;;35.63;22.35;;;6.10;99.90;;;;;;5077206;28;20361;-59
2022/03/20 08:32:22;;;;;;;33.30;22.92;;;6.20;99.90;;;;;;5077207;28;20028;-60
2022/03/20 08:34:48;;;;;;;33.10;22.30;;;6.40;99.90;;;;;;5077226;28;20044;-60
2022/03/20 08:37:14;;;;;;;33.58;23.15;;;6.40;99.90;;;;;;5076390;28;20082;-60
2022/03/20 08:39:40;;;;;;;36.60;23.08;;;6.60;99.90;;;;;;5077036;28;20546;-60
2022/03/20 08:42:06;;;;;;;33.25;22.58;;;6.70;99.90;;;;;;5076365;28;20109;-60
2022/03/20 08:44:32;;;;;;;34.53;22.70;;;6.80;99.90;;;;;;5059769;28;20299;-61
2022/03/20 08:46:59;;;;;;;31.75;21.38;;;6.80;99.90;;;;;;5076038;28;20039;-61
2022/03/20 08:49:25;;;;;;;33.72;22.73;;;6.80;99.90;;;;;;5076948;28;20031;-60
2022/03/20 08:51:50;;;;;;;33.25;22.77;;;6.70;99.90;;;;;;5076107;28;20028;-60
2022/03/20 08:54:16;;;;;;;33.13;22.30;;;6.70;99.90;;;;;;5076177;28;20036;-60
2022/03/20 08:56:42;;;;;;;34.90;22.90;;;6.60;99.90;;;;;;5076358;28;20029;-61
2022/03/20 08:59:08;;;;;;;33.88;22.63;;;6.40;99.90;;;;;;5076271;28;20045;-58
2022/03/20 09:01:33;;;;;;;32.88;22.38;;;6.90;99.90;;;;;;5059577;28;20060;-59
2022/03/20 09:04:00;;;;;;;31.50;22.15;;;7.20;99.90;;;;;;5076867;28;20392;-60
2022/03/20 09:06:26;;;;;;;35.25;22.73;;;7.50;99.90;;;;;;5077035;28;20032;-59
2022/03/20 09:08:53;;;;;;;33.88;23.52;;;7.40;99.90;;;;;;5059544;28;20020;-60
2022/03/20 09:11:21;;;;;;;32.25;22.13;;;7.20;99.90;;;;;;5076012;28;20033;-59
2022/03/20 09:13:47;;;;;;;37.15;23.25;;;7.00;99.90;;;;;;5059285;28;20021;-59
2022/03/20 09:18:59;;;;;;;34.85;21.73;;;6.90;99.90;;;;;;5076786;28;20036;-59
2022/03/20 09:21:31;;;;;;;31.45;21.63;;;7.00;99.90;;;;;;5076020;28;20032;-60
2022/03/20 09:23:57;;;;;;;;;;;7.30;99.90;;;;;;5076929;28;20051;-59
2022/03/20 09:26:23;;;;;;;34.63;21.80;;;7.10;99.90;;;;;;5075834;28;19912;-59
2022/03/20 09:28:49;;;;;;;32.22;21.88;;;6.80;99.90;;;;;;5076563;28;20108;-59
2022/03/20 09:31:15;;;;;;;30.33;21.05;;;6.80;99.90;;;;;;5042859;28;20419;-59
2022/03/20 09:33:42;;;;;;;31.45;20.88;;;7.00;99.90;;;;;;5076482;28;20025;-59
2022/03/20 09:36:08;;;;;;;31.30;21.85;;;7.00;99.90;;;;;;5076508;28;20097;-59
2022/03/20 09:38:34;;;;;;;36.78;22.40;;;7.20;99.90;;;;;;5076246;28;20049;-59
2022/03/20 09:41:07;;;;;;;32.90;22.58;;;7.60;99.90;;;;;;5076091;28;20036;-59
2022/03/20 09:43:44;;;;;;;31.48;20.70;;;8.10;99.90;;;;;;5075607;28;20131;-60
2022/03/20 09:46:10;;;;;;;28.80;20.38;;;8.30;99.90;;;;;;5075801;28;20093;-60
2022/03/20 09:48:36;;;;;;;31.63;20.73;;;8.00;99.90;;;;;;5075859;28;20041;-60
2022/03/20 09:51:04;;;;;;;34.10;21.67;;;7.80;99.90;;;;;;5075591;28;20067;-62
2022/03/20 09:53:30;;;;;;;27.75;20.23;;;7.60;99.90;;;;;;5076549;28;20037;-64
2022/03/20 09:55:57;;;;;;;31.25;19.98;;;7.30;99.90;;;;;;5075963;28;20351;-63
2022/03/20 09:58:28;;;;;;;29.58;20.63;;;7.30;99.90;;;;;;5077277;28;20099;-63
2022/03/20 10:00:55;;;;;;;28.35;19.85;;;7.50;99.90;;;;;;5062801;28;20354;-64
2022/03/20 10:03:24;;;;;;;29.27;20.77;;;7.50;99.90;;;;;;5079350;28;20292;-64
2022/03/20 10:06:16;;;;;;;29.85;19.92;;;7.60;99.90;;;;;;5080136;28;20024;-64
2022/03/20 10:09:15;;;;;;;27.23;19.52;;;7.60;99.90;;;;;;5079987;28;20037;-65
2022/03/20 10:11:53;;;;;;;31.23;20.05;;;7.70;99.90;;;;;;5059045;28;20032;-63
2022/03/20 10:14:23;;;;;;;29.13;20.13;;;7.30;99.90;;;;;;5063064;28;20044;-64
2022/03/20 10:17:06;;;;;;;29.35;20.50;;;7.60;99.90;;;;;;5080139;28;20024;-64
2022/03/20 10:19:32;;;;;;;31.55;20.90;;;7.90;99.90;;;;;;5079105;28;20033;-64
2022/03/20 10:22:09;;;;;;;28.98;20.02;;;8.10;99.90;;;;;;5079810;28;20036;-64
2022/03/20 10:24:39;;;;;;;28.70;20.15;;;7.80;99.90;;;;;;5079063;28;20064;-64
2022/03/20 10:27:13;;;;;;;29.83;20.45;;;7.70;99.90;;;;;;5079615;28;20040;-64
2022/03/20 10:29:50;;;;;;;29.23;19.48;;;8.10;99.90;;;;;;5062551;28;20032;-64
2022/03/20 10:32:16;;;;;;;28.67;20.08;;;8.30;99.90;;;;;;5078798;28;20040;-64
2022/03/20 10:34:54;;;;;;;28.20;20.00;;;8.60;99.90;;;;;;5062253;28;20154;-63
2022/03/20 10:37:41;;;;;;;27.33;18.67;;;8.30;99.90;;;;;;5078810;28;20083;-63
2022/03/20 10:40:13;;;;;;;30.23;19.75;;;8.80;99.90;;;;;;5079184;28;20060;-63
2022/03/20 10:42:38;;;;;;;26.55;18.80;;;8.90;99.90;;;;;;5079462;28;20033;-65
2022/03/20 10:45:08;;;;;;;29.65;18.77;;;9.50;99.90;;;;;;5079404;28;20044;-64
2022/03/20 10:47:34;;;;;;;26.92;18.65;;;9.70;99.90;;;;;;5079250;28;20291;-65
2022/03/20 10:50:05;;;;;;;26.02;18.65;;;10.70;99.90;;;;;;5078564;28;20043;-63
2022/03/20 10:52:32;;;;;;;24.67;17.90;;;11.20;99.90;;;;;;5078536;28;20090;-63
2022/03/20 10:54:58;;;;;;;25.27;19.20;;;11.60;99.90;;;;;;5079199;28;20414;-63
2022/03/20 10:57:32;;;;;;;28.48;18.80;;;11.80;99.90;;;;;;5061837;28;20419;-63
2022/03/20 11:00:07;;;;;;;24.98;18.27;;;12.50;99.90;;;;;;5078390;28;20115;-72
2022/03/20 11:02:37;;;;;;;25.38;18.02;;;12.70;99.90;;;;;;5078955;28;20299;-68
2022/03/20 11:05:03;;;;;;;25.20;18.10;;;13.30;99.90;;;;;;5078235;28;20400;-72
2022/03/20 11:07:30;;;;;;;23.90;19.15;;;13.20;99.90;;;;;;5061661;28;20123;-71
2022/03/20 11:09:56;;;;;;;23.23;18.38;;;12.70;99.90;;;;;;5077105;28;20036;-71
2022/03/20 11:12:25;;;;;;;25.80;18.30;;;12.10;99.90;;;;;;5078423;28;20468;-67
2022/03/20 11:14:54;;;;;;;27.45;18.88;;;12.70;99.90;;;;;;5078770;28;20059;-69
2022/03/20 11:17:26;;;;;;;23.80;18.17;;;12.80;99.90;;;;;;5079132;28;20036;-68
2022/03/20 11:19:57;;;;;;;23.35;17.83;;;13.00;99.90;;;;;;5078720;28;20062;-67
2022/03/20 11:22:24;;;;;;;23.75;17.50;;;12.10;99.90;;;;;;5078656;28;20098;-67
2022/03/20 11:24:52;;;;;;;26.23;18.48;;;12.80;99.90;;;;;;5078562;28;20347;-66
2022/03/20 11:27:28;;;;;;;25.67;19.15;;;13.90;99.90;;;;;;5077691;28;20299;-68
2022/03/20 11:30:14;;;;;;;22.38;18.08;;;14.50;99.90;;;;;;5078443;28;20081;-70
2022/03/20 11:32:43;;;;;;;24.95;18.70;;;15.40;99.90;;;;;;5078970;28;20036;-70
2022/03/20 11:35:09;;;;;;;22.17;18.13;;;15.90;99.90;;;;;;5078303;28;20029;-69
2022/03/20 11:37:47;;;;;;;24.00;18.63;;;16.10;99.90;;;;;;5077595;28;20059;-70
2022/03/20 11:40:22;;;;;;;24.08;18.55;;;16.10;99.90;;;;;;5077529;28;20132;-70
2022/03/20 11:43:11;;;;;;;22.38;18.13;;;16.20;99.90;;;;;;5062067;28;20068;-69
2022/03/20 11:45:37;;;;;;;23.85;18.98;;;16.20;99.90;;;;;;5077327;28;20066;-66
2022/03/20 11:48:14;;;;;;;21.83;18.35;;;16.10;99.90;;;;;;5077134;28;20028;-69
2022/03/20 11:50:43;;;;;;;25.23;18.88;;;15.30;99.70;;;;;;5060417;28;20028;-69
2022/03/20 11:53:10;;;;;;;23.17;19.08;;;15.40;99.90;;;;;;5077137;28;20090;-71
2022/03/20 11:55:41;;;;;;;24.77;20.13;;;15.00;99.90;;;;;;5077892;28;20029;-68
2022/03/20 11:58:16;;;;;;;23.83;19.30;;;14.90;99.90;;;;;;5077922;28;20452;-68
2022/03/20 12:00:44;;;;;;;24.42;19.98;;;13.50;99.90;;;;;;5077709;28;20031;-69
2022/03/20 12:03:13;;;;;;;23.20;18.70;;;13.00;99.90;;;;;;5078066;28;20036;-69
2022/03/20 12:05:42;;;;;;;24.25;19.50;;;12.60;99.90;;;;;;5060259;28;20085;-69
2022/03/20 12:08:35;;;;;;;27.75;20.73;;;12.90;99.90;;;;;;5078075;28;20280;-71
2022/03/20 12:11:35;;;;;;;25.60;20.17;;;12.60;99.90;;;;;;5077625;28;20043;-70
2022/03/20 12:14:10;;;;;;;28.83;21.05;;;11.80;99.90;;;;;;5076914;28;20086;-69
2022/03/20 12:16:42;;;;;;;25.65;20.85;;;11.20;99.90;;;;;;5076659;28;20078;-72
2022/03/20 12:19:13;;;;;;;26.65;20.77;;;11.40;99.90;;;;;;5076672;28;20086;-69
2022/03/20 12:21:54;;;;;;;25.80;20.88;;;11.20;99.90;;;;;;5076500;28;20032;-69
2022/03/20 12:24:35;;;;;;;26.35;20.90;;;11.70;99.90;;;;;;5076576;28;20293;-69
2022/03/20 12:27:31;;;;;;;26.73;20.13;;;11.10;99.90;;;;;;5076582;28;20358;-72
2022/03/20 12:30:09;;;;;;;28.67;22.30;;;10.80;99.90;;;;;;5071994;28;20093;-69
2022/03/20 12:32:47;;;;;;;28.75;21.38;;;10.20;99.90;;;;;;5076560;28;20032;-70
2022/03/20 12:35:18;;;;;;;28.48;21.70;;;10.10;99.90;;;;;;5076869;28;20029;-71
2022/03/20 12:37:44;;;;;;;31.00;22.08;;;9.70;99.90;;;;;;5077248;28;20292;-70
2022/03/20 12:40:15;;;;;;;29.27;21.65;;;9.60;99.90;;;;;;5077248;28;20044;-70
2022/03/20 12:42:53;;;;;;;28.60;21.17;;;9.30;99.90;;;;;;5076895;28;20095;-73
2022/03/20 12:45:19;;;;;;;27.75;21.35;;;9.30;99.90;;;;;;5061391;28;20159;-69
2022/03/20 12:47:55;;;;;;;29.80;22.63;;;9.40;99.90;;;;;;5076803;28;20308;-73
2022/03/20 12:50:31;;;;;;;34.00;22.65;;;9.20;99.90;;;;;;5076631;28;20302;-69
2022/03/20 12:53:17;;;;;;;30.20;22.73;;;9.20;99.90;;;;;;5077464;28;20021;-71
2022/03/20 12:55:58;;;;;;;31.70;22.00;;;9.60;99.90;;;;;;5076406;28;20043;-72
2022/03/20 12:58:24;;;;;;;28.85;22.15;;;9.90;99.90;;;;;;5076364;28;20054;-72
2022/03/20 13:00:52;;;;;;;29.23;21.00;;;10.40;99.90;;;;;;5076904;28;20307;-70
2022/03/20 13:03:19;;;;;;;29.75;22.10;;;11.80;99.90;;;;;;5076914;28;20055;-71
2022/03/20 13:05:59;;;;;;;27.23;21.25;;;13.10;99.90;;;;;;5076799;28;20063;-72
2022/03/20 13:08:27;;;;;;;27.92;22.00;;;13.20;99.90;;;;;;5059440;28;20285;-72
2022/03/20 13:10:56;;;;;;;28.15;22.20;;;13.40;99.90;;;;;;5076996;28;20029;-72
2022/03/20 13:13:30;;;;;;;27.75;22.15;;;13.60;99.90;;;;;;5077284;28;20032;-72
2022/03/20 13:15:56;;;;;;;27.02;22.27;;;12.20;99.90;;;;;;5077107;28;20059;-71
2022/03/20 13:18:28;;;;;;;29.50;23.27;;;11.70;99.90;;;;;;5076039;28;20025;-70
2022/03/20 13:20:54;;;;;;;27.88;22.25;;;12.60;99.90;;;;;;5059774;28;20036;-71
2022/03/20 13:23:22;;;;;;;27.67;22.80;;;14.00;99.90;;;;;;5076555;28;20381;-73
2022/03/20 13:25:57;;;;;;;29.90;22.65;;;13.70;99.90;;;;;;5077554;28;20032;-71
2022/03/20 13:28:34;;;;;;;30.75;22.73;;;12.80;99.90;;;;;;5076835;28;20040;-72